sensor_id;sensor_type;location;lat;lon;timestamp;temperature;humidity
10873;DHT22;34586;53.616;10.032;2022-09-06T00:00:16;16.60;99.90
10873;DHT22;34586;53.616;10.032;2022-09-06T00:02:42;16.50;99.90
10873;DHT22;34586;53.616;10.032;2022-09-06T00:05:09;16.60;99.90
10873;DHT22;34586;53.616;10.032;2022-09-06T00:07:35;16.50;99.90
10873;DHT22;34586;53.616;10.032;2022-09-06T00:10:02;16.50;99.90
10873;DHT22;34586;53.616;10.032;2022-09-06T00:12:28;16.40;99.90
10873;DHT22;34586;53.616;10.032;2022-09-06T00:14:54;16.50;99.90
10873;DHT22;34586;53.616;10.032;2022-09-06T00:17:19;16.40;1.00
10873;DHT22;34586;53.616;10.032;2022-09-06T00:19:45;16.40;99.90
10873;DHT22;34586;53.616;10.032;2022-09-06T00:22:11;16.40;99.90
10873;DHT22;34586;53.616;10.032;2022-09-06T00:24:36;16.30;99.90
10873;DHT22;34586;53.616;10.032;2022-09-06T00:27:06;16.40;99.90
10873;DHT22;34586;53.616;10.032;2022-09-06T00:29:32;16.40;86.10
10873;DHT22;34586;53.616;10.032;2022-09-06T00:31:58;16.40;99.90
10873;DHT22;34586;53.616;10.032;2022-09-06T00:34:24;16.40;24.70
10873;DHT22;34586;53.616;10.032;2022-09-06T00:36:50;16.40;99.90
10873;DHT22;34586;53.616;10.032;2022-09-06T00:39:15;16.40;94.50
10873;DHT22;34586;53.616;10.032;2022-09-06T00:41:41;16.50;1.00
10873;DHT22;34586;53.616;10.032;2022-09-06T00:44:06;16.50;1.00
10873;DHT22;34586;53.616;10.032;2022-09-06T00:46:32;16.40;1.00
10873;DHT22;34586;53.616;10.032;2022-09-06T00:49:09;16.50;1.00
10873;DHT22;34586;53.616;10.032;2022-09-06T00:51:37;16.40;1.00
10873;DHT22;34586;53.616;10.032;2022-09-06T00:54:04;16.50;99.90
10873;DHT22;34586;53.616;10.032;2022-09-06T00:56:31;16.40;1.00
10873;DHT22;34586;53.616;10.032;2022-09-06T00:58:59;16.40;1.00
10873;DHT22;34586;53.616;10.032;2022-09-06T01:01:25;16.40;1.00
10873;DHT22;34586;53.616;10.032;2022-09-06T01:03:50;16.40;45.40
10873;DHT22;34586;53.616;10.032;2022-09-06T01:14:25;16.30;1.00
10873;DHT22;34586;53.616;10.032;2022-09-06T01:25:12;16.40;1.00
10873;DHT22;34586;53.616;10.032;2022-09-06T01:27:55;16.40;1.00
10873;DHT22;34586;53.616;10.032;2022-09-06T01:30:23;16.40;1.00
10873;DHT22;34586;53.616;10.032;2022-09-06T01:32:59;16.40;99.90
10873;DHT22;34586;53.616;10.032;2022-09-06T01:35:32;16.30;1.00
10873;DHT22;34586;53.616;10.032;2022-09-06T01:38:00;16.30;1.00
10873;DHT22;34586;53.616;10.032;2022-09-06T01:40:27;16.30;1.00
10873;DHT22;34586;53.616;10.032;2022-09-06T01:42:53;16.30;99.90
10873;DHT22;34586;53.616;10.032;2022-09-06T01:45:25;16.30;99.90
10873;DHT22;34586;53.616;10.032;2022-09-06T02:04:29;16.20;99.90
10873;DHT22;34586;53.616;10.032;2022-09-06T02:09:47;16.20;99.90
10873;DHT22;34586;53.616;10.032;2022-09-06T02:12:16;16.20;99.90
10873;DHT22;34586;53.616;10.032;2022-09-06T02:15:00;16.20;99.90
10873;DHT22;34586;53.616;10.032;2022-09-06T02:17:33;16.20;1.00
10873;DHT22;34586;53.616;10.032;2022-09-06T02:20:09;16.20;1.00
10873;DHT22;34586;53.616;10.032;2022-09-06T02:22:39;16.30;1.00
10873;DHT22;34586;53.616;10.032;2022-09-06T02:25:08;16.20;1.00
10873;DHT22;34586;53.616;10.032;2022-09-06T02:27:34;16.20;1.00
10873;DHT22;34586;53.616;10.032;2022-09-06T02:30:01;16.20;1.00
10873;DHT22;34586;53.616;10.032;2022-09-06T02:32:32;16.20;1.00
10873;DHT22;34586;53.616;10.032;2022-09-06T02:35:06;16.20;1.00
10873;DHT22;34586;53.616;10.032;2022-09-06T02:37:33;16.20;1.00
10873;DHT22;34586;53.616;10.032;2022-09-06T02:39:59;16.20;1.00
10873;DHT22;34586;53.616;10.032;2022-09-06T02:42:25;16.20;1.00
10873;DHT22;34586;53.616;10.032;2022-09-06T02:44:51;16.10;1.00
10873;DHT22;34586;53.616;10.032;2022-09-06T02:47:16;16.10;1.00
10873;DHT22;34586;53.616;10.032;2022-09-06T02:49:42;16.20;99.90
10873;DHT22;34586;53.616;10.032;2022-09-06T02:52:07;16.20;99.90
10873;DHT22;34586;53.616;10.032;2022-09-06T02:54:33;16.20;99.90
10873;DHT22;34586;53.616;10.032;2022-09-06T02:56:58;16.20;99.90
10873;DHT22;34586;53.616;10.032;2022-09-06T02:59:24;16.20;99.90
10873;DHT22;34586;53.616;10.032;2022-09-06T03:01:49;16.20;99.90
10873;DHT22;34586;53.616;10.032;2022-09-06T03:04:15;16.20;99.90
10873;DHT22;34586;53.616;10.032;2022-09-06T03:06:41;16.20;99.90
10873;DHT22;34586;53.616;10.032;2022-09-06T03:09:06;16.20;99.90
10873;DHT22;34586;53.616;10.032;2022-09-06T03:11:35;16.10;91.60
10873;DHT22;34586;53.616;10.032;2022-09-06T03:14:00;16.20;13.80
10873;DHT22;34586;53.616;10.032;2022-09-06T03:16:26;16.20;1.00
10873;DHT22;34586;53.616;10.032;2022-09-06T03:18:51;16.20;1.00
10873;DHT22;34586;53.616;10.032;2022-09-06T03:21:17;16.20;96.30
10873;DHT22;34586;53.616;10.032;2022-09-06T03:23:42;16.10;1.00
10873;DHT22;34586;53.616;10.032;2022-09-06T03:26:08;16.10;1.00
10873;DHT22;34586;53.616;10.032;2022-09-06T03:28:33;16.10;1.00
10873;DHT22;34586;53.616;10.032;2022-09-06T03:30:59;16.10;1.00
10873;DHT22;34586;53.616;10.032;2022-09-06T03:33:25;15.70;10.40
10873;DHT22;34586;53.616;10.032;2022-09-06T03:35:56;16.00;1.00
10873;DHT22;34586;53.616;10.032;2022-09-06T03:38:23;16.10;1.00
10873;DHT22;34586;53.616;10.032;2022-09-06T03:40:49;16.10;1.00
10873;DHT22;34586;53.616;10.032;2022-09-06T03:43:16;16.20;1.00
10873;DHT22;34586;53.616;10.032;2022-09-06T03:45:47;16.10;1.00
10873;DHT22;34586;53.616;10.032;2022-09-06T03:48:13;16.10;1.00
10873;DHT22;34586;53.616;10.032;2022-09-06T03:50:47;16.10;1.00
10873;DHT22;34586;53.616;10.032;2022-09-06T03:53:13;16.10;1.00
10873;DHT22;34586;53.616;10.032;2022-09-06T03:55:42;16.10;1.00
10873;DHT22;34586;53.616;10.032;2022-09-06T03:58:08;16.10;1.00
10873;DHT22;34586;53.616;10.032;2022-09-06T04:00:34;16.10;99.90
10873;DHT22;34586;53.616;10.032;2022-09-06T04:02:59;16.10;99.90
10873;DHT22;34586;53.616;10.032;2022-09-06T04:05:25;16.10;99.90
10873;DHT22;34586;53.616;10.032;2022-09-06T04:07:51;16.10;99.90
10873;DHT22;34586;53.616;10.032;2022-09-06T04:10:16;16.20;99.90
10873;DHT22;34586;53.616;10.032;2022-09-06T04:12:42;16.20;99.90
10873;DHT22;34586;53.616;10.032;2022-09-06T04:15:08;16.20;99.90
10873;DHT22;34586;53.616;10.032;2022-09-06T04:17:33;16.20;99.90
10873;DHT22;34586;53.616;10.032;2022-09-06T04:19:59;16.10;99.90
10873;DHT22;34586;53.616;10.032;2022-09-06T04:22:25;16.10;99.90
10873;DHT22;34586;53.616;10.032;2022-09-06T04:24:50;16.10;99.90
10873;DHT22;34586;53.616;10.032;2022-09-06T04:27:16;16.10;99.90
10873;DHT22;34586;53.616;10.032;2022-09-06T04:29:41;16.00;99.90
10873;DHT22;34586;53.616;10.032;2022-09-06T04:32:07;16.00;99.90
10873;DHT22;34586;53.616;10.032;2022-09-06T04:34:32;16.00;99.90
10873;DHT22;34586;53.616;10.032;2022-09-06T04:36:58;16.00;99.90
10873;DHT22;34586;53.616;10.032;2022-09-06T04:39:23;16.00;99.90
10873;DHT22;34586;53.616;10.032;2022-09-06T04:41:49;16.00;99.90
10873;DHT22;34586;53.616;10.032;2022-09-06T04:44:14;16.00;99.90
10873;DHT22;34586;53.616;10.032;2022-09-06T04:46:41;15.90;99.90
10873;DHT22;34586;53.616;10.032;2022-09-06T04:49:07;15.90;99.90
10873;DHT22;34586;53.616;10.032;2022-09-06T04:51:32;15.90;99.90
10873;DHT22;34586;53.616;10.032;2022-09-06T04:53:58;15.90;99.90
10873;DHT22;34586;53.616;10.032;2022-09-06T04:56:24;15.90;99.90
10873;DHT22;34586;53.616;10.032;2022-09-06T04:58:52;15.90;99.90
10873;DHT22;34586;53.616;10.032;2022-09-06T05:01:18;15.90;99.90
10873;DHT22;34586;53.616;10.032;2022-09-06T05:03:44;15.90;99.90
10873;DHT22;34586;53.616;10.032;2022-09-06T05:06:12;15.90;99.90
10873;DHT22;34586;53.616;10.032;2022-09-06T05:08:39;15.90;99.90
10873;DHT22;34586;53.616;10.032;2022-09-06T05:11:06;15.90;99.90
10873;DHT22;34586;53.616;10.032;2022-09-06T05:13:32;15.90;99.90
10873;DHT22;34586;53.616;10.032;2022-09-06T05:16:03;15.90;99.90
10873;DHT22;34586;53.616;10.032;2022-09-06T05:18:30;15.90;99.10
10873;DHT22;34586;53.616;10.032;2022-09-06T05:20:56;15.90;99.90
10873;DHT22;34586;53.616;10.032;2022-09-06T05:23:23;15.90;99.90
10873;DHT22;34586;53.616;10.032;2022-09-06T05:25:48;15.90;99.90
10873;DHT22;34586;53.616;10.032;2022-09-06T05:28:14;15.90;99.90
10873;DHT22;34586;53.616;10.032;2022-09-06T05:30:40;16.00;57.80
10873;DHT22;34586;53.616;10.032;2022-09-06T05:33:11;16.00;83.80
10873;DHT22;34586;53.616;10.032;2022-09-06T05:35:36;16.00;81.20
10873;DHT22;34586;53.616;10.032;2022-09-06T05:38:02;16.00;63.10
10873;DHT22;34586;53.616;10.032;2022-09-06T05:40:28;16.10;56.10
10873;DHT22;34586;53.616;10.032;2022-09-06T05:42:53;16.10;69.80
10873;DHT22;34586;53.616;10.032;2022-09-06T05:45:19;16.10;82.20
10873;DHT22;34586;53.616;10.032;2022-09-06T05:47:44;16.10;76.20
10873;DHT22;34586;53.616;10.032;2022-09-06T05:50:10;16.10;1.00
10873;DHT22;34586;53.616;10.032;2022-09-06T05:52:35;16.10;85.10
10873;DHT22;34586;53.616;10.032;2022-09-06T05:55:03;16.10;36.00
10873;DHT22;34586;53.616;10.032;2022-09-06T05:57:28;16.20;29.50
10873;DHT22;34586;53.616;10.032;2022-09-06T05:59:54;16.30;1.00
10873;DHT22;34586;53.616;10.032;2022-09-06T06:02:20;16.40;1.00
10873;DHT22;34586;53.616;10.032;2022-09-06T06:04:46;16.40;1.00
10873;DHT22;34586;53.616;10.032;2022-09-06T06:07:12;16.40;1.00
10873;DHT22;34586;53.616;10.032;2022-09-06T06:09:37;16.60;1.00
10873;DHT22;34586;53.616;10.032;2022-09-06T06:12:03;16.60;1.00
10873;DHT22;34586;53.616;10.032;2022-09-06T06:14:29;16.60;1.00
10873;DHT22;34586;53.616;10.032;2022-09-06T06:16:54;16.60;1.00
10873;DHT22;34586;53.616;10.032;2022-09-06T06:19:20;16.70;1.00
10873;DHT22;34586;53.616;10.032;2022-09-06T06:21:45;16.60;1.00
10873;DHT22;34586;53.616;10.032;2022-09-06T06:24:11;16.70;1.00
10873;DHT22;34586;53.616;10.032;2022-09-06T06:26:37;16.70;1.00
10873;DHT22;34586;53.616;10.032;2022-09-06T06:29:04;16.70;1.00
10873;DHT22;34586;53.616;10.032;2022-09-06T06:31:32;16.70;1.00
10873;DHT22;34586;53.616;10.032;2022-09-06T06:33:58;16.80;1.00
10873;DHT22;34586;53.616;10.032;2022-09-06T06:36:27;16.80;1.00
10873;DHT22;34586;53.616;10.032;2022-09-06T06:38:55;16.70;1.00
10873;DHT22;34586;53.616;10.032;2022-09-06T06:41:24;16.80;1.00
10873;DHT22;34586;53.616;10.032;2022-09-06T06:43:54;16.80;1.00
10873;DHT22;34586;53.616;10.032;2022-09-06T06:46:22;16.90;1.00
10873;DHT22;34586;53.616;10.032;2022-09-06T06:48:48;16.80;1.00
10873;DHT22;34586;53.616;10.032;2022-09-06T06:51:16;16.90;1.00
10873;DHT22;34586;53.616;10.032;2022-09-06T06:53:43;16.80;1.00
10873;DHT22;34586;53.616;10.032;2022-09-06T06:56:29;16.80;1.00
10873;DHT22;34586;53.616;10.032;2022-09-06T06:58:56;18.10;1.00
10873;DHT22;34586;53.616;10.032;2022-09-06T07:01:23;16.80;1.00
10873;DHT22;34586;53.616;10.032;2022-09-06T07:03:49;16.90;1.00
10873;DHT22;34586;53.616;10.032;2022-09-06T07:06:15;16.90;1.00
10873;DHT22;34586;53.616;10.032;2022-09-06T07:08:41;17.10;1.00
10873;DHT22;34586;53.616;10.032;2022-09-06T07:11:09;17.00;1.00
10873;DHT22;34586;53.616;10.032;2022-09-06T07:13:35;16.90;1.00
10873;DHT22;34586;53.616;10.032;2022-09-06T07:16:15;17.00;1.00
10873;DHT22;34586;53.616;10.032;2022-09-06T07:18:41;17.00;1.00
10873;DHT22;34586;53.616;10.032;2022-09-06T07:21:17;17.00;1.00
10873;DHT22;34586;53.616;10.032;2022-09-06T07:23:43;17.10;1.00
10873;DHT22;34586;53.616;10.032;2022-09-06T07:26:14;17.20;1.00
10873;DHT22;34586;53.616;10.032;2022-09-06T07:28:40;17.20;1.00
10873;DHT22;34586;53.616;10.032;2022-09-06T07:31:05;17.20;1.00
10873;DHT22;34586;53.616;10.032;2022-09-06T07:33:34;17.20;1.00
10873;DHT22;34586;53.616;10.032;2022-09-06T07:36:01;17.30;1.00
10873;DHT22;34586;53.616;10.032;2022-09-06T07:38:28;17.40;1.00
10873;DHT22;34586;53.616;10.032;2022-09-06T07:40:58;17.30;1.00
10873;DHT22;34586;53.616;10.032;2022-09-06T07:43:25;17.50;1.00
10873;DHT22;34586;53.616;10.032;2022-09-06T07:46:06;17.40;1.00
10873;DHT22;34586;53.616;10.032;2022-09-06T07:48:34;17.50;1.00
10873;DHT22;34586;53.616;10.032;2022-09-06T07:51:08;17.50;1.00
10873;DHT22;34586;53.616;10.032;2022-09-06T07:53:36;17.60;1.00
10873;DHT22;34586;53.616;10.032;2022-09-06T07:56:03;17.60;1.00
10873;DHT22;34586;53.616;10.032;2022-09-06T07:58:30;17.70;1.00
10873;DHT22;34586;53.616;10.032;2022-09-06T08:03:44;17.90;1.00
10873;DHT22;34586;53.616;10.032;2022-09-06T08:06:10;17.90;1.00
10873;DHT22;34586;53.616;10.032;2022-09-06T08:08:37;17.90;1.00
10873;DHT22;34586;53.616;10.032;2022-09-06T08:11:03;17.80;1.00
10873;DHT22;34586;53.616;10.032;2022-09-06T08:13:32;17.80;1.00
10873;DHT22;34586;53.616;10.032;2022-09-06T08:16:09;18.00;1.00
10873;DHT22;34586;53.616;10.032;2022-09-06T08:18:36;18.00;1.00
10873;DHT22;34586;53.616;10.032;2022-09-06T08:21:06;18.00;1.00
10873;DHT22;34586;53.616;10.032;2022-09-06T08:23:32;18.20;1.00
10873;DHT22;34586;53.616;10.032;2022-09-06T08:25:58;18.30;1.00
10873;DHT22;34586;53.616;10.032;2022-09-06T08:28:25;18.40;1.00
10873;DHT22;34586;53.616;10.032;2022-09-06T08:30:50;18.30;1.00
10873;DHT22;34586;53.616;10.032;2022-09-06T08:33:16;18.40;1.00
10873;DHT22;34586;53.616;10.032;2022-09-06T08:35:58;18.50;1.00
10873;DHT22;34586;53.616;10.032;2022-09-06T08:38:25;18.60;1.00
10873;DHT22;34586;53.616;10.032;2022-09-06T08:40:52;18.40;1.00
10873;DHT22;34586;53.616;10.032;2022-09-06T08:43:20;18.60;1.00
10873;DHT22;34586;53.616;10.032;2022-09-06T08:45:55;18.60;1.00
10873;DHT22;34586;53.616;10.032;2022-09-06T08:48:22;18.90;1.00
10873;DHT22;34586;53.616;10.032;2022-09-06T08:51:35;18.90;1.00
10873;DHT22;34586;53.616;10.032;2022-09-06T08:53:58;18.90;1.00
10873;DHT22;34586;53.616;10.032;2022-09-06T08:56:33;18.90;1.00
10873;DHT22;34586;53.616;10.032;2022-09-06T08:59:03;19.00;1.00
10873;DHT22;34586;53.616;10.032;2022-09-06T09:02:00;19.10;1.00
10873;DHT22;34586;53.616;10.032;2022-09-06T09:04:27;19.10;1.00
10873;DHT22;34586;53.616;10.032;2022-09-06T09:06:58;19.20;1.00
10873;DHT22;34586;53.616;10.032;2022-09-06T09:09:26;19.10;1.00
10873;DHT22;34586;53.616;10.032;2022-09-06T09:11:53;19.20;1.00
10873;DHT22;34586;53.616;10.032;2022-09-06T09:14:26;19.30;1.00
10873;DHT22;34586;53.616;10.032;2022-09-06T09:16:57;19.10;1.00
10873;DHT22;34586;53.616;10.032;2022-09-06T09:19:23;19.20;1.00
10873;DHT22;34586;53.616;10.032;2022-09-06T09:21:49;19.10;1.00
10873;DHT22;34586;53.616;10.032;2022-09-06T09:24:14;19.10;1.00
10873;DHT22;34586;53.616;10.032;2022-09-06T09:26:54;19.00;1.00
10873;DHT22;34586;53.616;10.032;2022-09-06T09:29:21;19.00;42.30
10873;DHT22;34586;53.616;10.032;2022-09-06T09:31:52;19.00;1.00
10873;DHT22;34586;53.616;10.032;2022-09-06T09:34:47;19.00;1.00
10873;DHT22;34586;53.616;10.032;2022-09-06T09:37:23;19.20;1.00
10873;DHT22;34586;53.616;10.032;2022-09-06T09:39:52;19.20;7.20
10873;DHT22;34586;53.616;10.032;2022-09-06T09:44:54;19.30;1.00
10873;DHT22;34586;53.616;10.032;2022-09-06T09:47:25;19.30;1.00
10873;DHT22;34586;53.616;10.032;2022-09-06T09:49:53;19.20;1.00
10873;DHT22;34586;53.616;10.032;2022-09-06T09:52:27;19.30;1.00
10873;DHT22;34586;53.616;10.032;2022-09-06T09:54:57;19.20;1.00
10873;DHT22;34586;53.616;10.032;2022-09-06T09:57:24;19.20;1.00
10873;DHT22;34586;53.616;10.032;2022-09-06T09:59:52;19.20;1.00
10873;DHT22;34586;53.616;10.032;2022-09-06T10:05:01;19.30;1.00
10873;DHT22;34586;53.616;10.032;2022-09-06T10:07:27;19.40;1.00
10873;DHT22;34586;53.616;10.032;2022-09-06T10:10:04;19.40;1.00
10873;DHT22;34586;53.616;10.032;2022-09-06T10:12:33;19.30;1.00
10873;DHT22;34586;53.616;10.032;2022-09-06T10:14:59;19.20;1.00
10873;DHT22;34586;53.616;10.032;2022-09-06T10:19:55;19.20;51.10
10873;DHT22;34586;53.616;10.032;2022-09-06T10:22:26;19.20;1.00
10873;DHT22;34586;53.616;10.032;2022-09-06T10:33:57;19.20;1.00
10873;DHT22;34586;53.616;10.032;2022-09-06T10:36:36;19.30;1.00
10873;DHT22;34586;53.616;10.032;2022-09-06T10:47:13;19.50;1.00
10873;DHT22;34586;53.616;10.032;2022-09-06T10:49:43;19.60;1.00
10873;DHT22;34586;53.616;10.032;2022-09-06T10:52:13;19.60;1.00
10873;DHT22;34586;53.616;10.032;2022-09-06T10:54:40;19.70;1.00
10873;DHT22;34586;53.616;10.032;2022-09-06T10:59:48;19.80;1.00
10873;DHT22;34586;53.616;10.032;2022-09-06T11:02:37;19.80;1.00
10873;DHT22;34586;53.616;10.032;2022-09-06T11:07:41;19.80;1.00
10873;DHT22;34586;53.616;10.032;2022-09-06T11:10:25;19.80;1.00
10873;DHT22;34586;53.616;10.032;2022-09-06T11:15:24;19.70;1.00
10873;DHT22;34586;53.616;10.032;2022-09-06T11:18:05;19.80;1.00
10873;DHT22;34586;53.616;10.032;2022-09-06T11:20:34;19.80;1.00
10873;DHT22;34586;53.616;10.032;2022-09-06T11:23:39;19.90;1.00
10873;DHT22;34586;53.616;10.032;2022-09-06T11:29:09;19.80;1.00
10873;DHT22;34586;53.616;10.032;2022-09-06T11:31:55;20.00;1.00
10873;DHT22;34586;53.616;10.032;2022-09-06T11:34:30;20.00;1.00
10873;DHT22;34586;53.616;10.032;2022-09-06T11:37:01;20.00;1.00
10873;DHT22;34586;53.616;10.032;2022-09-06T11:41:55;20.00;1.00
10873;DHT22;34586;53.616;10.032;2022-09-06T11:47:46;20.10;1.00
10873;DHT22;34586;53.616;10.032;2022-09-06T11:53:13;20.20;1.00
10873;DHT22;34586;53.616;10.032;2022-09-06T12:06:21;20.50;1.00
10873;DHT22;34586;53.616;10.032;2022-09-06T12:08:49;20.50;1.00
10873;DHT22;34586;53.616;10.032;2022-09-06T12:11:32;20.60;1.00
10873;DHT22;34586;53.616;10.032;2022-09-06T12:13:59;20.50;1.00
10873;DHT22;34586;53.616;10.032;2022-09-06T12:19:41;20.60;1.00
10873;DHT22;34586;53.616;10.032;2022-09-06T12:27:59;20.30;99.90
10873;DHT22;34586;53.616;10.032;2022-09-06T12:30:45;20.40;99.90
10873;DHT22;34586;53.616;10.032;2022-09-06T12:33:36;20.40;1.00
10873;DHT22;34586;53.616;10.032;2022-09-06T12:36:18;20.30;1.00
10873;DHT22;34586;53.616;10.032;2022-09-06T12:39:13;20.30;2.00
10873;DHT22;34586;53.616;10.032;2022-09-06T12:41:42;20.40;1.00
10873;DHT22;34586;53.616;10.032;2022-09-06T12:44:08;20.40;1.00
10873;DHT22;34586;53.616;10.032;2022-09-06T12:46:35;20.40;1.00
10873;DHT22;34586;53.616;10.032;2022-09-06T12:49:11;20.40;1.00
10873;DHT22;34586;53.616;10.032;2022-09-06T12:51:39;20.40;19.40
10873;DHT22;34586;53.616;10.032;2022-09-06T12:54:18;20.30;4.10
10873;DHT22;34586;53.616;10.032;2022-09-06T12:56:44;20.30;57.80
10873;DHT22;34586;53.616;10.032;2022-09-06T12:59:30;20.20;1.00
10873;DHT22;34586;53.616;10.032;2022-09-06T13:02:04;20.10;1.00
10873;DHT22;34586;53.616;10.032;2022-09-06T13:04:48;20.30;1.00
10873;DHT22;34586;53.616;10.032;2022-09-06T13:07:18;20.30;1.00
10873;DHT22;34586;53.616;10.032;2022-09-06T13:09:47;20.30;1.00
10873;DHT22;34586;53.616;10.032;2022-09-06T13:14:55;20.40;1.00
10873;DHT22;34586;53.616;10.032;2022-09-06T13:17:23;20.30;1.00
10873;DHT22;34586;53.616;10.032;2022-09-06T13:19:49;20.30;1.00
10873;DHT22;34586;53.616;10.032;2022-09-06T13:22:36;20.30;1.00
10873;DHT22;34586;53.616;10.032;2022-09-06T13:25:03;20.20;1.00
10873;DHT22;34586;53.616;10.032;2022-09-06T13:27:35;20.30;1.00
10873;DHT22;34586;53.616;10.032;2022-09-06T13:30:07;20.20;1.00
10873;DHT22;34586;53.616;10.032;2022-09-06T13:32:34;20.20;1.00
10873;DHT22;34586;53.616;10.032;2022-09-06T13:35:01;20.20;1.00
10873;DHT22;34586;53.616;10.032;2022-09-06T13:37:30;20.20;1.00
10873;DHT22;34586;53.616;10.032;2022-09-06T13:39:56;20.30;1.00
10873;DHT22;34586;53.616;10.032;2022-09-06T13:42:35;20.30;1.00
10873;DHT22;34586;53.616;10.032;2022-09-06T13:45:22;20.20;1.00
10873;DHT22;34586;53.616;10.032;2022-09-06T13:47:49;20.30;1.00
10873;DHT22;34586;53.616;10.032;2022-09-06T13:50:15;20.20;1.00
10873;DHT22;34586;53.616;10.032;2022-09-06T13:52:40;20.20;1.00
10873;DHT22;34586;53.616;10.032;2022-09-06T13:55:06;20.20;83.90
10873;DHT22;34586;53.616;10.032;2022-09-06T13:57:32;20.20;99.90
10873;DHT22;34586;53.616;10.032;2022-09-06T13:59:58;20.20;99.90
10873;DHT22;34586;53.616;10.032;2022-09-06T14:02:23;20.20;50.20
10873;DHT22;34586;53.616;10.032;2022-09-06T14:04:49;20.10;59.50
10873;DHT22;34586;53.616;10.032;2022-09-06T14:07:15;20.10;50.00
10873;DHT22;34586;53.616;10.032;2022-09-06T14:09:41;20.10;99.90
10873;DHT22;34586;53.616;10.032;2022-09-06T14:12:06;20.00;99.90
10873;DHT22;34586;53.616;10.032;2022-09-06T14:14:34;20.00;99.90
10873;DHT22;34586;53.616;10.032;2022-09-06T14:16:59;19.90;95.30
10873;DHT22;34586;53.616;10.032;2022-09-06T14:19:25;19.90;99.90
10873;DHT22;34586;53.616;10.032;2022-09-06T14:21:51;19.80;99.90
10873;DHT22;34586;53.616;10.032;2022-09-06T14:24:17;19.80;61.30
10873;DHT22;34586;53.616;10.032;2022-09-06T14:26:42;19.80;58.80
10873;DHT22;34586;53.616;10.032;2022-09-06T14:29:08;19.80;99.90
10873;DHT22;34586;53.616;10.032;2022-09-06T14:31:33;19.80;98.90
10873;DHT22;34586;53.616;10.032;2022-09-06T14:34:00;19.80;98.80
10873;DHT22;34586;53.616;10.032;2022-09-06T14:36:27;20.00;29.30
10873;DHT22;34586;53.616;10.032;2022-09-06T14:39:00;19.90;99.60
10873;DHT22;34586;53.616;10.032;2022-09-06T14:41:26;20.10;32.10
10873;DHT22;34586;53.616;10.032;2022-09-06T14:43:54;20.00;64.20
10873;DHT22;34586;53.616;10.032;2022-09-06T14:46:22;20.10;54.50
10873;DHT22;34586;53.616;10.032;2022-09-06T14:48:59;20.20;8.80
10873;DHT22;34586;53.616;10.032;2022-09-06T14:51:25;20.20;91.60
10873;DHT22;34586;53.616;10.032;2022-09-06T14:53:53;20.20;24.20
10873;DHT22;34586;53.616;10.032;2022-09-06T14:56:19;20.30;88.90
10873;DHT22;34586;53.616;10.032;2022-09-06T14:58:45;20.30;64.30
10873;DHT22;34586;53.616;10.032;2022-09-06T15:03:44;20.20;29.10
10873;DHT22;34586;53.616;10.032;2022-09-06T15:06:14;20.20;94.30
10873;DHT22;34586;53.616;10.032;2022-09-06T15:08:40;20.20;99.90
10873;DHT22;34586;53.616;10.032;2022-09-06T15:11:06;20.30;96.20
10873;DHT22;34586;53.616;10.032;2022-09-06T15:13:36;20.30;50.30
10873;DHT22;34586;53.616;10.032;2022-09-06T15:16:07;20.40;91.10
10873;DHT22;34586;53.616;10.032;2022-09-06T15:18:33;20.40;99.90
10873;DHT22;34586;53.616;10.032;2022-09-06T15:21:14;20.50;63.30
10873;DHT22;34586;53.616;10.032;2022-09-06T15:23:40;20.50;1.00
10873;DHT22;34586;53.616;10.032;2022-09-06T15:26:07;20.50;1.00
10873;DHT22;34586;53.616;10.032;2022-09-06T15:28:37;20.50;11.90
10873;DHT22;34586;53.616;10.032;2022-09-06T15:31:04;20.40;1.00
10873;DHT22;34586;53.616;10.032;2022-09-06T15:33:31;20.40;1.00
10873;DHT22;34586;53.616;10.032;2022-09-06T15:35:57;20.40;1.00
10873;DHT22;34586;53.616;10.032;2022-09-06T15:38:25;20.40;1.00
10873;DHT22;34586;53.616;10.032;2022-09-06T15:40:51;20.40;1.00
10873;DHT22;34586;53.616;10.032;2022-09-06T15:43:16;20.30;1.00
10873;DHT22;34586;53.616;10.032;2022-09-06T15:45:46;20.30;25.30
10873;DHT22;34586;53.616;10.032;2022-09-06T15:48:14;20.30;28.30
10873;DHT22;34586;53.616;10.032;2022-09-06T15:50:40;20.30;97.90
10873;DHT22;34586;53.616;10.032;2022-09-06T15:53:06;20.30;45.10
10873;DHT22;34586;53.616;10.032;2022-09-06T15:55:31;20.20;50.60
10873;DHT22;34586;53.616;10.032;2022-09-06T15:58:16;20.10;99.90
10873;DHT22;34586;53.616;10.032;2022-09-06T16:00:42;20.20;97.20
10873;DHT22;34586;53.616;10.032;2022-09-06T16:03:08;20.20;73.80
10873;DHT22;34586;53.616;10.032;2022-09-06T16:05:34;20.30;99.90
10873;DHT22;34586;53.616;10.032;2022-09-06T16:07:59;20.30;99.90
10873;DHT22;34586;53.616;10.032;2022-09-06T16:10:25;20.40;94.80
10873;DHT22;34586;53.616;10.032;2022-09-06T16:12:51;20.50;48.30
10873;DHT22;34586;53.616;10.032;2022-09-06T16:15:17;20.50;1.00
10873;DHT22;34586;53.616;10.032;2022-09-06T16:17:43;20.60;1.00
10873;DHT22;34586;53.616;10.032;2022-09-06T16:20:09;20.70;1.00
10873;DHT22;34586;53.616;10.032;2022-09-06T16:22:34;20.80;1.00
10873;DHT22;34586;53.616;10.032;2022-09-06T16:25:00;20.90;1.00
10873;DHT22;34586;53.616;10.032;2022-09-06T16:27:26;21.00;1.00
10873;DHT22;34586;53.616;10.032;2022-09-06T16:29:51;21.10;1.00
10873;DHT22;34586;53.616;10.032;2022-09-06T16:32:17;21.10;1.00
10873;DHT22;34586;53.616;10.032;2022-09-06T16:34:42;21.10;1.00
10873;DHT22;34586;53.616;10.032;2022-09-06T16:37:08;21.00;1.00
10873;DHT22;34586;53.616;10.032;2022-09-06T16:39:34;21.00;1.00
10873;DHT22;34586;53.616;10.032;2022-09-06T16:42:00;20.90;1.00
10873;DHT22;34586;53.616;10.032;2022-09-06T16:44:26;20.90;1.00
10873;DHT22;34586;53.616;10.032;2022-09-06T16:46:52;20.80;1.00
10873;DHT22;34586;53.616;10.032;2022-09-06T16:49:20;20.80;1.00
10873;DHT22;34586;53.616;10.032;2022-09-06T16:51:47;20.70;1.00
10873;DHT22;34586;53.616;10.032;2022-09-06T16:54:13;20.80;1.00
10873;DHT22;34586;53.616;10.032;2022-09-06T16:56:39;20.70;1.00
10873;DHT22;34586;53.616;10.032;2022-09-06T16:59:07;20.60;1.00
10873;DHT22;34586;53.616;10.032;2022-09-06T17:01:34;20.50;1.00
10873;DHT22;34586;53.616;10.032;2022-09-06T17:04:01;20.40;1.00
10873;DHT22;34586;53.616;10.032;2022-09-06T17:06:26;20.30;1.00
10873;DHT22;34586;53.616;10.032;2022-09-06T17:08:55;20.20;1.00
10873;DHT22;34586;53.616;10.032;2022-09-06T17:11:23;20.10;1.00
10873;DHT22;34586;53.616;10.032;2022-09-06T17:13:50;20.00;1.00
10873;DHT22;34586;53.616;10.032;2022-09-06T17:16:17;19.90;6.50
10873;DHT22;34586;53.616;10.032;2022-09-06T17:19:03;19.90;15.00
10873;DHT22;34586;53.616;10.032;2022-09-06T17:21:29;19.80;27.30